Time;durP1;ratioP1;P1;durP2;ratioP2;P2;SDS_P1;SDS_P2;PMS_P1;PMS_P2;Temp;Humidity;BMP_temperature;BMP_pressure;BME280_temperature;BME280_humidity;BME280_pressure;Samples;Min_cycle;Max_cycle;Signal;HPM_P1;HPM_P2
2023/10/18 03:30:54;;;;;;;7.65;5.93;;;4.00;99.90;;;;;;5882354;23;20337;-71
2023/10/18 03:33:21;;;;;;;8.75;7.00;;;4.00;99.90;;;;;;4925497;29;20216;-71
2023/10/18 03:36:01;;;;;;;7.90;7.10;;;4.00;99.90;;;;;;4933637;29;20208;-71
2023/10/18 03:38:30;;;;;;;10.68;6.45;;;4.00;99.90;;;;;;4931470;29;20299;-70
2023/10/18 03:40:57;;;;;;;7.00;6.15;;;4.00;99.90;;;;;;4930000;29;20633;-71
2023/10/18 03:43:31;;;;;;;8.57;5.97;;;4.00;99.90;;;;;;4916656;29;20205;-71
2023/10/18 03:46:18;;;;;;;9.98;7.30;;;4.00;99.90;;;;;;4916616;29;20588;-70
2023/10/18 03:48:47;;;;;;;10.52;7.00;;;4.00;99.90;;;;;;4917597;29;20301;-71
2023/10/18 03:51:18;;;;;;;8.38;7.10;;;4.00;99.90;;;;;;4915421;29;20313;-70
2023/10/18 03:53:48;;;;;;;8.38;6.82;;;3.90;99.90;;;;;;4916492;29;20265;-70
2023/10/18 03:56:15;;;;;;;8.13;7.00;;;3.90;99.90;;;;;;4915447;29;20253;-71
2023/10/18 03:58:48;;;;;;;10.20;7.25;;;4.00;99.90;;;;;;4915243;29;20281;-71
2023/10/18 04:01:21;;;;;;;10.95;6.93;;;4.00;99.90;;;;;;4915507;29;20882;-70
2023/10/18 04:03:49;;;;;;;12.30;7.88;;;3.90;99.90;;;;;;4916178;29;20305;-71
2023/10/18 04:06:23;;;;;;;8.63;7.00;;;3.90;99.90;;;;;;4914284;29;20210;-71
2023/10/18 04:08:50;;;;;;;9.38;6.75;;;3.90;99.90;;;;;;4922463;29;20217;-70
2023/10/18 04:11:24;;;;;;;8.10;6.55;;;3.90;99.90;;;;;;4923076;29;20277;-69
2023/10/18 04:13:51;;;;;;;9.63;6.72;;;3.90;99.90;;;;;;4922633;29;20248;-70
2023/10/18 04:16:26;;;;;;;9.57;6.53;;;4.00;99.90;;;;;;4924253;29;20206;-70
2023/10/18 04:18:56;;;;;;;12.93;8.60;;;3.90;99.90;;;;;;4919966;29;20510;-68
2023/10/18 04:21:26;;;;;;;10.43;7.45;;;3.90;99.90;;;;;;4922198;29;20276;-69
2023/10/18 04:23:54;;;;;;;9.98;6.75;;;3.90;99.90;;;;;;4921267;29;20206;-68
2023/10/18 04:26:21;;;;;;;11.98;7.53;;;3.90;99.90;;;;;;4915903;29;20644;-69
2023/10/18 04:28:54;;;;;;;9.13;6.68;;;3.90;99.90;;;;;;4913668;29;20671;-69
2023/10/18 04:31:22;;;;;;;9.65;7.20;;;3.90;99.90;;;;;;4910129;29;20605;-70
2023/10/18 04:33:50;;;;;;;9.38;6.38;;;3.90;99.90;;;;;;4914394;29;20210;-70
2023/10/18 04:36:20;;;;;;;7.93;6.32;;;3.90;99.90;;;;;;4914352;29;20583;-70
2023/10/18 04:38:48;;;;;;;10.75;6.15;;;3.90;99.90;;;;;;4916190;29;20205;-70
2023/10/18 04:41:27;;;;;;;11.07;6.97;;;3.90;99.90;;;;;;4914569;29;20225;-70
2023/10/18 04:44:00;;;;;;;13.63;7.70;;;3.90;99.90;;;;;;4913014;29;20639;-69
2023/10/18 04:46:30;;;;;;;10.35;7.05;;;3.90;99.90;;;;;;4907039;29;20304;-70
2023/10/18 04:49:16;;;;;;;8.05;6.43;;;3.90;99.90;;;;;;4913240;29;20594;-69
2023/10/18 04:51:48;;;;;;;9.80;6.43;;;3.80;99.90;;;;;;4914808;29;20232;-70
2023/10/18 04:54:18;;;;;;;10.10;7.38;;;3.80;99.90;;;;;;4912936;29;20266;-70
2023/10/18 04:56:46;;;;;;;10.00;6.18;;;3.80;99.90;;;;;;4915832;29;20206;-70
2023/10/18 04:59:29;;;;;;;8.82;6.70;;;3.80;99.90;;;;;;4913519;29;20257;-69
2023/10/18 05:01:59;;;;;;;10.45;6.95;;;3.80;99.90;;;;;;4914481;29;20229;-68
2023/10/18 05:04:29;;;;;;;12.20;8.00;;;3.80;99.90;;;;;;4914174;29;20235;-69
2023/10/18 05:06:58;;;;;;;8.85;7.00;;;3.80;99.90;;;;;;4912290;29;20241;-69
2023/10/18 05:09:34;;;;;;;9.60;6.80;;;3.80;99.90;;;;;;4913705;29;20240;-69
2023/10/18 05:12:07;;;;;;;8.20;6.22;;;3.80;99.90;;;;;;4913278;29;20296;-69
2023/10/18 05:14:40;;;;;;;9.90;6.32;;;3.80;99.90;;;;;;4914108;29;20212;-70
2023/10/18 05:17:11;;;;;;;8.90;6.13;;;3.80;99.90;;;;;;4913385;29;20214;-69
2023/10/18 05:19:41;;;;;;;8.80;7.50;;;3.80;99.90;;;;;;4914623;29;20218;-69
2023/10/18 05:22:09;;;;;;;10.20;7.32;;;3.80;99.90;;;;;;4913330;29;20229;-70
2023/10/18 05:24:38;;;;;;;10.95;8.13;;;3.70;99.90;;;;;;4913174;29;20280;-69
2023/10/18 05:27:19;;;;;;;10.50;7.20;;;3.70;99.90;;;;;;4913824;29;20582;-71
2023/10/18 05:29:52;;;;;;;10.75;6.85;;;3.70;99.90;;;;;;4914548;29;20205;-72
2023/10/18 05:32:39;;;;;;;14.85;9.07;;;3.70;99.90;;;;;;4914407;29;20721;-71
2023/10/18 05:37:57;;;;;;;9.82;7.40;;;3.70;99.90;;;;;;4914042;29;20236;-71
2023/10/18 05:40:49;;;;;;;11.00;8.27;;;3.70;99.90;;;;;;4907141;29;20206;-71
2023/10/18 05:43:22;;;;;;;9.75;6.03;;;3.70;99.90;;;;;;4913840;29;20220;-70
2023/10/18 05:45:50;;;;;;;12.05;6.70;;;3.70;99.90;;;;;;4914649;29;20257;-70
2023/10/18 05:48:18;;;;;;;9.73;6.88;;;3.70;99.90;;;;;;4914835;29;20210;-70
2023/10/18 05:50:49;;;;;;;9.98;7.80;;;3.70;99.90;;;;;;4913956;29;20589;-70
2023/10/18 05:53:19;;;;;;;12.52;7.22;;;3.70;99.90;;;;;;4920237;29;20309;-70
2023/10/18 05:55:52;;;;;;;10.27;7.55;;;3.80;99.90;;;;;;4915120;29;20202;-73
2023/10/18 05:58:25;;;;;;;9.00;6.88;;;3.70;99.90;;;;;;4914597;29;20285;-69
2023/10/18 06:00:52;;;;;;;7.95;6.47;;;3.70;99.90;;;;;;4914834;29;20265;-70
2023/10/18 06:03:22;;;;;;;11.40;7.47;;;3.80;99.90;;;;;;4914505;29;20206;-70
2023/10/18 06:05:51;;;;;;;12.75;7.80;;;3.80;99.90;;;;;;4914509;29;20236;-70
2023/10/18 06:08:22;;;;;;;13.45;8.20;;;3.80;99.90;;;;;;4914706;29;20269;-69
2023/10/18 06:10:49;;;;;;;10.25;6.03;;;3.80;99.90;;;;;;4914806;29;20230;-70
2023/10/18 06:13:21;;;;;;;12.25;8.32;;;3.80;99.90;;;;;;4914120;29;20214;-71
2023/10/18 06:15:51;;;;;;;12.07;7.10;;;3.90;99.90;;;;;;4914116;29;20262;-71
2023/10/18 06:18:26;;;;;;;12.75;7.97;;;3.90;99.90;;;;;;4914289;29;20205;-71
2023/10/18 06:20:58;;;;;;;9.95;7.15;;;3.90;99.90;;;;;;4914964;29;20237;-71
2023/10/18 06:23:40;;;;;;;8.32;6.55;;;3.90;99.90;;;;;;4914857;29;20311;-71
2023/10/18 06:28:49;;;;;;;11.15;8.52;;;4.10;99.90;;;;;;4918523;29;20211;-70
2023/10/18 06:31:18;;;;;;;13.25;8.55;;;4.10;99.90;;;;;;4919682;29;20869;-71
2023/10/18 06:33:51;;;;;;;8.57;6.20;;;4.20;99.90;;;;;;4921108;29;20208;-70
2023/10/18 06:36:21;;;;;;;9.57;7.35;;;4.20;99.90;;;;;;4918094;29;20627;-70
2023/10/18 06:38:50;;;;;;;15.30;8.50;;;4.20;99.90;;;;;;4900171;29;20298;-70
2023/10/18 06:41:19;;;;;;;12.63;7.75;;;4.30;99.90;;;;;;4905839;29;20329;-69
2023/10/18 06:43:46;;;;;;;13.23;8.40;;;4.30;99.90;;;;;;4906944;29;20202;-71
2023/10/18 06:46:22;;;;;;;10.48;8.15;;;4.40;99.90;;;;;;4913835;29;20278;-70
2023/10/18 06:48:51;;;;;;;11.70;9.02;;;4.50;99.90;;;;;;4907904;29;20214;-70
2023/10/18 06:51:18;;;;;;;8.45;7.40;;;4.50;99.90;;;;;;4913622;29;22976;-70
2023/10/18 06:53:50;;;;;;;12.30;8.18;;;4.60;99.90;;;;;;4914069;29;20508;-72
2023/10/18 06:56:20;;;;;;;12.45;8.55;;;4.60;99.90;;;;;;4913895;29;20213;-72
2023/10/18 06:58:47;;;;;;;10.25;8.70;;;4.70;99.90;;;;;;4914832;29;20202;-72
2023/10/18 07:01:20;;;;;;;12.55;8.88;;;4.70;99.90;;;;;;4913787;29;20234;-72
2023/10/18 07:03:51;;;;;;;12.13;8.65;;;4.80;99.90;;;;;;4900769;29;20202;-73
2023/10/18 07:06:23;;;;;;;13.85;8.60;;;4.80;99.90;;;;;;4903450;29;20231;-73
2023/10/18 07:08:51;;;;;;;12.60;9.18;;;4.90;99.90;;;;;;4912248;29;20216;-70
2023/10/18 07:11:18;;;;;;;14.25;9.95;;;5.00;99.90;;;;;;4909996;29;20241;-71
2023/10/18 07:13:50;;;;;;;16.98;10.43;;;5.00;99.90;;;;;;4917225;29;20269;-71
2023/10/18 07:16:25;;;;;;;14.95;10.13;;;5.10;99.90;;;;;;4917028;29;20694;-72
2023/10/18 07:19:06;;;;;;;15.63;10.82;;;5.10;99.90;;;;;;4910605;29;20213;-71
2023/10/18 07:21:33;;;;;;;19.90;11.15;;;5.20;99.90;;;;;;4913567;29;20230;-75
2023/10/18 07:24:02;;;;;;;14.13;10.82;;;5.30;99.90;;;;;;4915874;29;20213;-71
2023/10/18 07:26:29;;;;;;;14.15;9.88;;;5.30;99.90;;;;;;4910989;29;20221;-73
2023/10/18 07:28:57;;;;;;;14.65;10.20;;;5.40;99.90;;;;;;4917341;29;20277;-73
2023/10/18 07:31:32;;;;;;;16.90;11.30;;;5.50;99.90;;;;;;4917293;29;20237;-69
2023/10/18 07:34:02;;;;;;;11.82;8.43;;;5.50;99.90;;;;;;4910184;29;20214;-70
2023/10/18 07:36:30;;;;;;;17.25;10.77;;;5.50;99.90;;;;;;4917225;29;20216;-70
2023/10/18 07:38:57;;;;;;;13.75;9.50;;;5.70;99.90;;;;;;4916992;29;20232;-70
2023/10/18 07:41:26;;;;;;;14.13;9.20;;;5.80;99.90;;;;;;4914096;29;20236;-71
2023/10/18 07:43:55;;;;;;;18.80;10.10;;;6.10;99.90;;;;;;4906942;29;20661;-72
2023/10/18 07:46:24;;;;;;;14.68;9.75;;;6.30;99.90;;;;;;4915568;29;20235;-72
2023/10/18 07:48:54;;;;;;;14.75;8.70;;;6.40;99.90;;;;;;4910981;29;20209;-72
2023/10/18 07:51:25;;;;;;;14.90;10.30;;;6.60;99.90;;;;;;4909768;29;20247;-72
2023/10/18 07:53:53;;;;;;;13.85;9.95;;;6.70;99.90;;;;;;4910001;29;20303;-72
2023/10/18 07:56:24;;;;;;;13.43;9.25;;;6.80;99.90;;;;;;4907571;29;20212;-71
2023/10/18 07:58:53;;;;;;;12.40;8.73;;;7.00;99.90;;;;;;4908114;29;20450;-70
2023/10/18 08:01:46;;;;;;;12.95;8.82;;;7.20;99.90;;;;;;4910774;29;20227;-73
2023/10/18 08:04:14;;;;;;;20.63;10.30;;;7.40;99.90;;;;;;4915795;29;20242;-73
2023/10/18 08:06:45;;;;;;;14.70;10.45;;;7.70;99.90;;;;;;4911020;29;20589;-72
2023/10/18 08:09:12;;;;;;;12.07;8.90;;;7.90;99.90;;;;;;4915097;29;20213;-71
2023/10/18 08:11:39;;;;;;;16.63;9.60;;;8.10;99.90;;;;;;4905531;29;20237;-71
2023/10/18 08:14:16;;;;;;;12.50;8.52;;;8.30;99.90;;;;;;4914055;29;20228;-71
2023/10/18 08:16:52;;;;;;;14.57;8.93;;;8.40;99.90;;;;;;4911507;29;20205;-71
2023/10/18 08:19:22;;;;;;;13.85;8.32;;;8.60;99.90;;;;;;4915730;29;20228;-71
2023/10/18 08:22:09;;;;;;;11.68;8.80;;;8.80;99.90;;;;;;4916232;29;20234;-71
2023/10/18 08:24:37;;;;;;;11.68;9.57;;;8.90;99.90;;;;;;4909974;29;20209;-70
2023/10/18 08:27:09;;;;;;;13.15;9.55;;;9.00;99.90;;;;;;4909398;29;20698;-71
2023/10/18 08:29:36;;;;;;;15.18;8.90;;;9.20;99.90;;;;;;4915922;29;20731;-71
2023/10/18 08:32:08;;;;;;;9.93;8.52;;;9.20;99.90;;;;;;4916205;29;20238;-70
2023/10/18 08:34:35;;;;;;;11.25;7.78;;;9.30;99.90;;;;;;4911795;29;20583;-69
2023/10/18 08:37:04;;;;;;;9.98;8.48;;;9.40;99.90;;;;;;4913137;29;20206;-71
2023/10/18 08:39:31;;;;;;;13.98;9.23;;;9.50;99.90;;;;;;4913765;29;20275;-70
2023/10/18 08:42:08;;;;;;;10.80;8.80;;;9.60;99.90;;;;;;4910243;29;20254;-70
2023/10/18 08:44:38;;;;;;;12.05;8.90;;;9.70;99.90;;;;;;4910755;29;20213;-70
2023/10/18 08:47:12;;;;;;;9.70;8.40;;;9.80;99.90;;;;;;4915734;29;20222;-70
2023/10/18 08:49:50;;;;;;;14.88;8.45;;;9.80;99.90;;;;;;4911577;29;20209;-78
2023/10/18 08:52:21;;;;;;;12.27;8.48;;;9.70;99.90;;;;;;4915310;29;20269;-69
2023/10/18 08:54:49;;;;;;;9.57;7.95;;;9.90;99.90;;;;;;4910575;29;20266;-70
2023/10/18 08:57:24;;;;;;;11.63;8.80;;;10.10;99.90;;;;;;4902776;29;20218;-70
2023/10/18 08:59:52;;;;;;;11.73;8.10;;;10.40;99.90;;;;;;4916060;29;20213;-78
2023/10/18 09:02:21;;;;;;;10.48;7.47;;;10.60;99.90;;;;;;4915556;29;20255;-71
2023/10/18 09:04:52;;;;;;;14.15;9.02;;;10.80;99.90;;;;;;4914909;29;20213;-71
2023/10/18 09:07:21;;;;;;;10.85;8.73;;;10.90;99.90;;;;;;4909046;29;20234;-72
2023/10/18 09:09:56;;;;;;;11.23;8.02;;;11.10;99.90;;;;;;4915497;29;20688;-72
2023/10/18 09:15:29;;;;;;;8.80;7.90;;;11.50;99.90;;;;;;4908380;29;20219;-71
2023/10/18 09:18:00;;;;;;;10.27;7.70;;;11.70;99.90;;;;;;4909624;29;20242;-75
2023/10/18 09:20:27;;;;;;;10.57;7.45;;;11.80;99.90;;;;;;4912571;29;20218;-73
2023/10/18 09:23:01;;;;;;;10.10;7.75;;;12.00;99.90;;;;;;4911852;29;20677;-73
2023/10/18 09:25:28;;;;;;;10.90;8.35;;;12.20;99.90;;;;;;4913419;29;20215;-71
2023/10/18 09:28:06;;;;;;;8.73;7.47;;;12.50;99.90;;;;;;4914810;29;20211;-71
2023/10/18 09:30:36;;;;;;;9.40;7.50;;;12.70;99.90;;;;;;4910707;29;20331;-71
2023/10/18 09:33:03;;;;;;;10.43;8.10;;;12.70;99.90;;;;;;4919089;29;20535;-70
2023/10/18 09:35:31;;;;;;;10.10;7.37;;;12.80;99.90;;;;;;4911655;29;20488;-70
2023/10/18 09:38:03;;;;;;;11.53;7.73;;;12.60;99.90;;;;;;4911999;29;20473;-69
2023/10/18 09:40:30;;;;;;;8.23;7.00;;;12.40;99.90;;;;;;4914605;29;20528;-70
2023/10/18 09:42:57;;;;;;;7.67;6.87;;;12.40;99.90;;;;;;4909481;29;20501;-70
2023/10/18 09:45:23;;;;;;;8.67;7.70;;;12.40;99.90;;;;;;4914017;29;20914;-70
2023/10/18 09:47:51;;;;;;;8.80;6.40;;;12.50;99.90;;;;;;4915054;29;20467;-70
2023/10/18 09:50:24;;;;;;;9.97;6.57;;;12.50;99.90;;;;;;4914705;29;20472;-70
2023/10/18 09:52:57;;;;;;;8.53;7.53;;;12.60;99.90;;;;;;4915068;29;20478;-70
2023/10/18 09:55:27;;;;;;;10.33;7.47;;;12.70;99.90;;;;;;4912253;29;20468;-70
2023/10/18 09:58:02;;;;;;;9.43;7.57;;;12.80;99.90;;;;;;4915020;29;20550;-70
2023/10/18 10:00:31;;;;;;;8.40;6.47;;;12.80;99.90;;;;;;4913268;29;20901;-69
2023/10/18 10:02:59;;;;;;;8.53;7.20;;;12.70;99.90;;;;;;4914906;29;20474;-70
2023/10/18 10:05:26;;;;;;;8.03;6.30;;;12.60;99.90;;;;;;4914005;29;20516;-70
2023/10/18 10:07:54;;;;;;;9.73;7.20;;;12.50;99.90;;;;;;4914824;29;21029;-70
2023/10/18 10:10:34;;;;;;;7.87;6.93;;;12.40;99.90;;;;;;4906149;29;20468;-69
2023/10/18 10:13:08;;;;;;;8.10;7.17;;;12.20;99.90;;;;;;4914713;29;20473;-70
2023/10/18 10:15:37;;;;;;;9.73;7.13;;;12.20;99.90;;;;;;4908675;29;20465;-71
2023/10/18 10:18:06;;;;;;;8.40;6.70;;;12.10;99.90;;;;;;4911038;29;20208;-70
2023/10/18 10:20:40;;;;;;;9.30;6.20;;;12.00;99.90;;;;;;4914318;29;20530;-70
2023/10/18 10:23:14;;;;;;;7.83;6.50;;;12.10;99.90;;;;;;4914854;29;20540;-70
2023/10/18 10:25:48;;;;;;;7.57;6.27;;;12.30;99.90;;;;;;4905364;29;20475;-70
2023/10/18 10:29:09;;;;;;;10.20;7.10;;;12.50;99.90;;;;;;4908448;29;20529;-70
2023/10/18 10:31:50;;;;;;;8.93;6.50;;;12.90;99.90;;;;;;4912697;29;20579;-70
2023/10/18 10:34:24;;;;;;;9.47;7.40;;;13.40;99.90;;;;;;4908528;29;20994;-70
2023/10/18 10:36:51;;;;;;;10.40;6.80;;;13.90;99.90;;;;;;4910741;29;20465;-70
2023/10/18 10:39:31;;;;;;;10.53;7.70;;;14.40;99.90;;;;;;4913603;29;20465;-70
2023/10/18 10:42:08;;;;;;;8.90;6.10;;;15.00;99.90;;;;;;4914439;29;20552;-71
2023/10/18 10:44:55;;;;;;;7.20;6.50;;;15.50;99.90;;;;;;4916888;29;20881;-71
2023/10/18 10:47:34;;;;;;;7.33;6.63;;;16.00;99.90;;;;;;4914786;29;20500;-71
2023/10/18 10:50:03;;;;;;;6.57;4.97;;;16.20;99.90;;;;;;4915630;29;20469;-72
2023/10/18 10:52:31;;;;;;;8.60;6.30;;;16.20;99.90;;;;;;4911412;29;20517;-71
2023/10/18 10:55:05;;;;;;;7.47;6.67;;;16.40;99.90;;;;;;4914418;29;20469;-71
2023/10/18 10:57:35;;;;;;;11.80;7.57;;;16.40;99.90;;;;;;4917724;29;20469;-71
2023/10/18 11:00:36;;;;;;;6.13;5.53;;;16.50;99.90;;;;;;4918084;29;20857;-70
2023/10/18 11:03:20;;;;;;;10.00;6.30;;;16.70;99.90;;;;;;4913187;29;20977;-72
2023/10/18 11:05:51;;;;;;;6.00;5.40;;;16.90;99.90;;;;;;4917067;29;20479;-72
2023/10/18 11:08:19;;;;;;;6.70;5.63;;;16.80;99.90;;;;;;4917188;29;20465;-72
2023/10/18 11:10:45;;;;;;;6.57;5.77;;;16.70;99.90;;;;;;4917351;29;20482;-72
2023/10/18 11:13:13;;;;;;;6.10;5.00;;;16.40;99.90;;;;;;4917775;29;20510;-69
2023/10/18 11:15:42;;;;;;;6.77;5.60;;;15.90;99.90;;;;;;4913669;29;20840;-74
2023/10/18 11:18:19;;;;;;;7.30;6.00;;;15.50;99.90;;;;;;4912868;29;20956;-71
2023/10/18 11:20:57;;;;;;;6.37;5.20;;;15.10;99.90;;;;;;4912682;29;20482;-70
2023/10/18 11:23:29;;;;;;;5.87;5.20;;;14.90;99.90;;;;;;4913715;29;20473;-70
2023/10/18 11:25:57;;;;;;;5.70;4.57;;;14.60;99.90;;;;;;4913641;29;20489;-73
2023/10/18 11:28:29;;;;;;;6.43;5.77;;;14.40;99.90;;;;;;4913990;29;20468;-71
2023/10/18 11:31:00;;;;;;;6.17;5.00;;;14.30;99.90;;;;;;4917010;29;20486;-71
2023/10/18 11:33:37;;;;;;;6.27;5.00;;;14.20;99.90;;;;;;4905546;29;20981;-70
2023/10/18 11:36:08;;;;;;;6.33;4.43;;;14.10;99.90;;;;;;4916557;29;20469;-73
2023/10/18 11:38:35;;;;;;;7.73;5.40;;;14.00;99.90;;;;;;4915343;29;20476;-72
2023/10/18 11:41:09;;;;;;;5.47;4.80;;;14.00;99.90;;;;;;4914412;29;20521;-71
2023/10/18 11:43:39;;;;;;;6.10;4.90;;;14.00;99.90;;;;;;4910801;29;20469;-71
2023/10/18 11:46:08;;;;;;;5.47;4.47;;;13.90;99.90;;;;;;4914510;29;20477;-71
2023/10/18 11:48:35;;;;;;;4.70;3.63;;;13.90;99.90;;;;;;4916633;29;20466;-70
2023/10/18 11:51:06;;;;;;;4.60;3.70;;;14.00;99.90;;;;;;4912861;29;20485;-70
2023/10/18 11:53:33;;;;;;;5.47;4.17;;;14.00;99.90;;;;;;4911183;29;20552;-77
2023/10/18 11:56:01;;;;;;;4.90;4.33;;;14.00;99.90;;;;;;4915069;29;20470;-70
2023/10/18 11:58:30;;;;;;;5.67;3.93;;;14.00;99.90;;;;;;4916583;29;20465;-70
2023/10/18 12:00:59;;;;;;;6.93;4.37;;;13.90;99.90;;;;;;4912695;29;20493;-70
2023/10/18 12:03:28;;;;;;;4.40;4.00;;;13.90;99.90;;;;;;4912782;29;20473;-70
2023/10/18 12:05:56;;;;;;;5.30;3.73;;;13.90;99.90;;;;;;4912738;29;21034;-70
2023/10/18 12:08:24;;;;;;;4.83;4.33;;;13.80;99.90;;;;;;4912701;29;20926;-70
2023/10/18 12:10:52;;;;;;;6.17;3.70;;;13.80;99.90;;;;;;4909368;29;20494;-70
2023/10/18 12:13:20;;;;;;;5.30;4.80;;;13.80;99.90;;;;;;4916012;29;20473;-71
2023/10/18 12:15:47;;;;;;;4.50;3.70;;;13.70;99.90;;;;;;4911407;29;20887;-72
2023/10/18 12:18:15;;;;;;;4.43;4.00;;;13.70;99.90;;;;;;4916138;29;20498;-71
2023/10/18 12:20:44;;;;;;;4.57;3.67;;;13.70;99.90;;;;;;4914177;29;20484;-70
2023/10/18 12:23:13;;;;;;;4.60;4.20;;;13.70;99.90;;;;;;4911191;29;20477;-71
2023/10/18 12:25:42;;;;;;;6.13;4.47;;;13.70;99.90;;;;;;4915349;29;20464;-70
2023/10/18 12:28:12;;;;;;;4.93;4.33;;;13.70;99.90;;;;;;4912441;29;20625;-70
2023/10/18 12:30:41;;;;;;;4.63;3.97;;;13.60;99.90;;;;;;4915564;29;20517;-71
2023/10/18 12:33:14;;;;;;;4.20;3.80;;;13.60;99.90;;;;;;4912499;29;20970;-71
2023/10/18 12:35:41;;;;;;;5.43;4.20;;;13.60;99.90;;;;;;4915280;29;20480;-71
2023/10/18 12:38:14;;;;;;;4.67;4.20;;;13.60;99.90;;;;;;4915857;29;20462;-70
2023/10/18 12:40:51;;;;;;;5.50;4.17;;;13.60;99.90;;;;;;4912221;29;20524;-70
2023/10/18 12:43:19;;;;;;;4.93;4.10;;;13.60;99.90;;;;;;4915910;29;20469;-70
2023/10/18 12:45:50;;;;;;;4.93;3.77;;;13.50;99.90;;;;;;4911843;29;20471;-70
2023/10/18 12:48:22;;;;;;;5.07;4.00;;;13.40;99.90;;;;;;4920393;29;20493;-70
2023/10/18 12:50:50;;;;;;;4.67;4.27;;;13.40;99.90;;;;;;4916635;29;20485;-69
2023/10/18 12:53:36;;;;;;;4.83;3.93;;;13.40;99.90;;;;;;4912030;29;20471;-69
2023/10/18 12:58:48;;;;;;;3.90;3.60;;;13.40;99.90;;;;;;4907209;29;20465;-72
2023/10/18 13:01:15;;;;;;;4.93;4.00;;;13.40;99.90;;;;;;4911934;29;20549;-73
2023/10/18 13:03:44;;;;;;;4.43;3.60;;;13.30;99.90;;;;;;4915177;29;20557;-72
2023/10/18 13:06:16;;;;;;;4.90;3.83;;;13.30;99.90;;;;;;4914186;29;20470;-71
2023/10/18 13:14:05;;;;;;;3.20;2.90;;;13.30;99.90;;;;;;4932412;29;20616;-72
2023/10/18 13:16:32;;;;;;;4.10;3.43;;;13.30;99.90;;;;;;4934315;29;20911;-70
2023/10/18 13:18:59;;;;;;;5.97;4.10;;;13.30;99.90;;;;;;4931027;29;20523;-74
2023/10/18 13:21:27;;;;;;;4.27;3.67;;;13.30;99.90;;;;;;4934391;29;20865;-70
2023/10/18 13:23:56;;;;;;;4.90;3.67;;;13.40;99.90;;;;;;4934016;29;20811;-72
2023/10/18 13:26:27;;;;;;;3.70;3.30;;;13.30;99.90;;;;;;4929590;29;20830;-70
2023/10/18 13:28:59;;;;;;;3.33;3.03;;;13.30;99.90;;;;;;4934086;29;20466;-70
2023/10/18 13:31:31;;;;;;;4.27;3.47;;;13.30;99.90;;;;;;4929848;29;20484;-70
2023/10/18 13:33:58;;;;;;;4.00;3.60;;;13.30;99.90;;;;;;4933737;29;20472;-70
2023/10/18 13:36:25;;;;;;;4.10;3.27;;;13.30;99.90;;;;;;4933503;29;20475;-70
2023/10/18 13:38:53;;;;;;;4.60;3.73;;;13.30;99.90;;;;;;4934166;29;21021;-70
2023/10/18 13:41:20;;;;;;;4.20;3.80;;;13.30;99.90;;;;;;4934068;29;20495;-71
2023/10/18 13:43:49;;;;;;;4.37;3.93;;;13.20;99.90;;;;;;4933899;29;20485;-71
2023/10/18 13:46:23;;;;;;;3.67;3.27;;;13.20;99.90;;;;;;4933849;29;20900;-70
2023/10/18 13:48:50;;;;;;;6.00;4.70;;;13.20;99.90;;;;;;4933647;29;20930;-71
2023/10/18 13:51:19;;;;;;;4.83;3.93;;;13.20;99.90;;;;;;4933493;29;20570;-71
2023/10/18 13:53:46;;;;;;;4.80;3.90;;;13.20;99.90;;;;;;4934908;29;20478;-70
2023/10/18 13:56:13;;;;;;;4.60;4.10;;;13.20;99.90;;;;;;4933477;29;20495;-70
2023/10/18 13:58:40;;;;;;;5.33;3.90;;;13.20;99.90;;;;;;4933725;29;20632;-72
2023/10/18 14:01:17;;;;;;;3.97;3.33;;;13.10;99.90;;;;;;4933826;29;20488;-72
2023/10/18 14:03:44;;;;;;;6.43;5.27;;;13.10;99.90;;;;;;4931550;29;20885;-72
2023/10/18 14:06:11;;;;;;;6.10;4.50;;;13.10;99.90;;;;;;4933187;29;20464;-71
2023/10/18 14:08:38;;;;;;;4.23;3.83;;;13.10;99.90;;;;;;4933201;29;20492;-72
2023/10/18 14:11:05;;;;;;;4.82;4.20;;;13.10;99.90;;;;;;4931051;29;20492;-71
2023/10/18 14:13:31;;;;;;;5.00;4.50;;;13.00;99.90;;;;;;4933273;29;20634;-72
2023/10/18 14:15:58;;;;;;;4.63;4.10;;;13.00;99.90;;;;;;4934834;29;20507;-73
2023/10/18 14:18:27;;;;;;;6.40;4.17;;;13.00;99.90;;;;;;4938819;29;20954;-73
2023/10/18 14:20:54;;;;;;;4.87;4.37;;;12.90;99.90;;;;;;4939237;29;20641;-69
2023/10/18 14:23:27;;;;;;;7.40;4.70;;;12.90;99.90;;;;;;4939421;29;20975;-69
2023/10/18 14:25:54;;;;;;;5.40;4.20;;;12.80;99.90;;;;;;4939084;29;20553;-70
2023/10/18 14:28:21;;;;;;;4.43;3.87;;;12.80;99.90;;;;;;4939417;29;21031;-70
2023/10/18 14:30:51;;;;;;;5.57;4.63;;;12.80;99.90;;;;;;4940644;29;20565;-70
2023/10/18 14:33:18;;;;;;;4.63;3.83;;;12.80;99.90;;;;;;4942529;29;20563;-69
2023/10/18 14:35:47;;;;;;;4.20;3.80;;;12.80;99.90;;;;;;4938005;29;20503;-70
2023/10/18 14:38:14;;;;;;;6.27;4.07;;;12.80;99.90;;;;;;4939077;29;20475;-69
2023/10/18 14:40:44;;;;;;;4.60;3.88;;;12.80;99.90;;;;;;4939238;29;20861;-69
2023/10/18 14:43:11;;;;;;;4.77;4.03;;;12.70;99.90;;;;;;4937616;29;20332;-69
2023/10/18 14:45:40;;;;;;;5.90;3.90;;;12.70;99.90;;;;;;4939198;29;20467;-69
2023/10/18 14:48:07;;;;;;;5.17;4.50;;;12.60;99.90;;;;;;4932697;29;20489;-70
2023/10/18 14:50:35;;;;;;;6.90;4.60;;;12.60;99.90;;;;;;4933985;29;20498;-70
2023/10/18 14:53:03;;;;;;;5.10;3.70;;;12.60;99.90;;;;;;4938440;29;20479;-69
2023/10/18 14:55:30;;;;;;;4.85;3.70;;;12.50;99.90;;;;;;4938577;29;20478;-69
2023/10/18 14:57:57;;;;;;;5.65;4.80;;;12.40;99.90;;;;;;4938327;29;20219;-69
2023/10/18 15:00:24;;;;;;;8.13;4.93;;;12.20;99.90;;;;;;4939105;29;20215;-69
2023/10/18 15:02:52;;;;;;;5.22;4.20;;;12.20;99.90;;;;;;4938798;29;20583;-69
2023/10/18 15:05:20;;;;;;;5.00;4.50;;;12.00;99.90;;;;;;4938331;29;20212;-69
2023/10/18 15:07:48;;;;;;;9.95;5.03;;;11.90;99.90;;;;;;4938980;29;20302;-69
2023/10/18 15:10:17;;;;;;;8.90;5.00;;;11.90;99.90;;;;;;4939078;29;20214;-70
2023/10/18 15:12:44;;;;;;;5.68;5.00;;;11.80;99.90;;;;;;4938977;29;20473;-70
2023/10/18 15:15:14;;;;;;;5.55;4.10;;;11.80;99.90;;;;;;4937444;29;20211;-70
2023/10/18 15:17:42;;;;;;;5.78;4.53;;;11.80;99.90;;;;;;4939096;29;20210;-70
2023/10/18 15:20:12;;;;;;;7.85;4.88;;;11.80;99.90;;;;;;4938722;29;20277;-69
2023/10/18 15:22:38;;;;;;;5.10;4.33;;;11.80;99.90;;;;;;4939364;29;20265;-70
2023/10/18 15:25:09;;;;;;;5.85;4.80;;;11.70;99.90;;;;;;4938498;29;21007;-69
2023/10/18 15:27:38;;;;;;;7.15;5.28;;;11.70;99.90;;;;;;4938238;29;20227;-70
2023/10/18 15:30:06;;;;;;;4.95;4.10;;;11.60;99.90;;;;;;4935010;29;20218;-69
2023/10/18 15:32:39;;;;;;;5.45;4.60;;;11.50;99.90;;;;;;4935994;29;20225;-70
2023/10/18 15:35:08;;;;;;;6.53;5.75;;;11.40;99.90;;;;;;4935307;29;20226;-70
2023/10/18 15:37:35;;;;;;;6.57;4.65;;;11.30;99.90;;;;;;5014073;23;20240;-67
2023/10/18 15:40:02;;;;;;;6.80;5.53;;;11.20;99.90;;;;;;4941305;28;20224;-67
2023/10/18 15:42:29;;;;;;;7.78;6.00;;;11.20;99.90;;;;;;4936501;28;20221;-68
2023/10/18 15:44:57;;;;;;;9.73;7.13;;;11.20;99.90;;;;;;4935093;29;20213;-68
2023/10/18 15:47:24;;;;;;;8.30;6.03;;;11.10;99.90;;;;;;4935498;29;20214;-68
2023/10/18 15:49:52;;;;;;;9.68;7.20;;;11.10;99.90;;;;;;4934810;29;20218;-67
2023/10/18 15:52:20;;;;;;;11.52;6.80;;;11.10;99.90;;;;;;4932184;29;20310;-68
2023/10/18 15:54:49;;;;;;;11.45;6.97;;;11.10;99.90;;;;;;4917171;29;20218;-68
2023/10/18 15:57:15;;;;;;;8.13;6.50;;;11.10;99.90;;;;;;4928123;29;20214;-67
2023/10/18 15:59:42;;;;;;;7.65;6.85;;;11.00;99.90;;;;;;4928071;29;20223;-68
2023/10/18 16:02:12;;;;;;;10.63;7.53;;;11.00;99.90;;;;;;4926335;29;20409;-67
2023/10/18 16:04:39;;;;;;;10.70;6.45;;;11.00;99.90;;;;;;4922872;29;20203;-67
2023/10/18 16:07:06;;;;;;;9.18;6.25;;;10.90;99.90;;;;;;4925750;29;20735;-68
2023/10/18 16:09:33;;;;;;;7.82;7.00;;;10.90;99.90;;;;;;4932921;29;20233;-68
2023/10/18 16:11:59;;;;;;;11.85;7.03;;;10.90;99.90;;;;;;4925402;29;20238;-68
2023/10/18 16:14:28;;;;;;;9.30;6.28;;;10.90;99.90;;;;;;4932487;29;20210;-67
2023/10/18 16:17:00;;;;;;;7.95;6.35;;;10.80;99.90;;;;;;4925236;29;20216;-67
2023/10/18 16:19:28;;;;;;;9.55;6.80;;;10.80;99.90;;;;;;4924242;29;20291;-68
2023/10/18 16:21:55;;;;;;;9.52;6.68;;;10.80;99.90;;;;;;4924614;29;20243;-68
2023/10/18 16:24:23;;;;;;;8.00;6.85;;;10.80;99.90;;;;;;4925315;29;20246;-67
2023/10/18 16:26:51;;;;;;;7.97;6.20;;;10.80;99.90;;;;;;4927291;29;20235;-68
2023/10/18 16:29:19;;;;;;;8.38;6.82;;;10.80;99.90;;;;;;4926561;29;20227;-67
2023/10/18 16:31:46;;;;;;;9.77;6.40;;;10.80;99.90;;;;;;4927930;29;20258;-68
2023/10/18 16:34:12;;;;;;;7.90;6.10;;;10.80;99.90;;;;;;4925411;29;20249;-67
2023/10/18 16:36:40;;;;;;;8.30;6.15;;;10.80;99.90;;;;;;4926643;29;20220;-68
2023/10/18 16:39:08;;;;;;;10.15;6.30;;;10.80;99.90;;;;;;4932808;29;20205;-68
2023/10/18 16:41:35;;;;;;;8.45;6.82;;;10.80;99.90;;;;;;4924722;29;20461;-65
2023/10/18 16:44:03;;;;;;;7.93;6.13;;;10.80;99.90;;;;;;4931985;29;20215;-69
2023/10/18 16:46:31;;;;;;;10.40;7.30;;;10.80;99.90;;;;;;4923330;29;20236;-69
2023/10/18 16:48:59;;;;;;;11.60;7.38;;;10.80;99.90;;;;;;4923993;29;20784;-68
2023/10/18 16:51:28;;;;;;;8.35;6.65;;;10.70;99.90;;;;;;4928982;29;20631;-67